sensor_id;sensor_type;location;lat;lon;timestamp;P1;durP1;ratioP1;P2;durP2;ratioP2
21254;SDS011;10785;50.674;17.954;2023-06-24T00:00:49;2.33;;;1.83;;
21254;SDS011;10785;50.674;17.954;2023-06-24T00:03:18;2.67;;;1.42;;
21254;SDS011;10785;50.674;17.954;2023-06-24T00:05:47;1.77;;;1.38;;
21254;SDS011;10785;50.674;17.954;2023-06-24T00:08:18;1.05;;;1.00;;
21254;SDS011;10785;50.674;17.954;2023-06-24T00:10:48;2.50;;;1.35;;
21254;SDS011;10785;50.674;17.954;2023-06-24T00:13:18;6.38;;;2.22;;
21254;SDS011;10785;50.674;17.954;2023-06-24T00:15:46;3.58;;;2.85;;
21254;SDS011;10785;50.674;17.954;2023-06-24T00:18:15;2.47;;;2.22;;
21254;SDS011;10785;50.674;17.954;2023-06-24T00:20:44;4.75;;;3.25;;
21254;SDS011;10785;50.674;17.954;2023-06-24T00:23:12;10.70;;;4.40;;
21254;SDS011;10785;50.674;17.954;2023-06-24T00:25:45;2.90;;;2.63;;
21254;SDS011;10785;50.674;17.954;2023-06-24T00:28:14;4.57;;;3.40;;
21254;SDS011;10785;50.674;17.954;2023-06-24T00:30:42;6.40;;;3.38;;
21254;SDS011;10785;50.674;17.954;2023-06-24T00:33:12;5.03;;;2.03;;
21254;SDS011;10785;50.674;17.954;2023-06-24T00:35:41;5.05;;;3.78;;
21254;SDS011;10785;50.674;17.954;2023-06-24T00:38:10;7.70;;;4.32;;
21254;SDS011;10785;50.674;17.954;2023-06-24T00:40:39;10.90;;;5.05;;
21254;SDS011;10785;50.674;17.954;2023-06-24T00:43:10;7.20;;;2.83;;
21254;SDS011;10785;50.674;17.954;2023-06-24T00:45:38;9.25;;;4.63;;
21254;SDS011;10785;50.674;17.954;2023-06-24T00:48:08;7.10;;;5.00;;
21254;SDS011;10785;50.674;17.954;2023-06-24T00:50:36;5.18;;;3.72;;
21254;SDS011;10785;50.674;17.954;2023-06-24T00:53:09;12.10;;;6.13;;
21254;SDS011;10785;50.674;17.954;2023-06-24T00:55:38;5.22;;;3.72;;
21254;SDS011;10785;50.674;17.954;2023-06-24T00:58:07;6.00;;;3.45;;
21254;SDS011;10785;50.674;17.954;2023-06-24T01:00:37;5.82;;;4.25;;
21254;SDS011;10785;50.674;17.954;2023-06-24T01:03:06;3.60;;;3.22;;
21254;SDS011;10785;50.674;17.954;2023-06-24T01:05:36;6.68;;;4.30;;
21254;SDS011;10785;50.674;17.954;2023-06-24T01:08:07;6.30;;;2.92;;
21254;SDS011;10785;50.674;17.954;2023-06-24T01:10:36;5.50;;;3.88;;
21254;SDS011;10785;50.674;17.954;2023-06-24T01:13:04;7.55;;;2.53;;
21254;SDS011;10785;50.674;17.954;2023-06-24T01:15:33;9.23;;;5.22;;
21254;SDS011;10785;50.674;17.954;2023-06-24T01:18:05;9.15;;;3.58;;
21254;SDS011;10785;50.674;17.954;2023-06-24T01:20:39;5.00;;;3.72;;
21254;SDS011;10785;50.674;17.954;2023-06-24T01:26:19;6.88;;;3.88;;
21254;SDS011;10785;50.674;17.954;2023-06-24T01:32:15;10.00;;;3.58;;
21254;SDS011;10785;50.674;17.954;2023-06-24T01:34:52;6.10;;;3.85;;
21254;SDS011;10785;50.674;17.954;2023-06-24T01:37:25;5.60;;;3.58;;
21254;SDS011;10785;50.674;17.954;2023-06-24T01:40:01;10.48;;;4.22;;
21254;SDS011;10785;50.674;17.954;2023-06-24T01:42:39;7.70;;;4.38;;
21254;SDS011;10785;50.674;17.954;2023-06-24T01:45:10;10.55;;;4.55;;
21254;SDS011;10785;50.674;17.954;2023-06-24T01:47:44;3.35;;;2.95;;
21254;SDS011;10785;50.674;17.954;2023-06-24T01:50:16;4.18;;;3.20;;
21254;SDS011;10785;50.674;17.954;2023-06-24T01:52:49;3.63;;;3.08;;
21254;SDS011;10785;50.674;17.954;2023-06-24T01:55:20;4.78;;;4.22;;
21254;SDS011;10785;50.674;17.954;2023-06-24T01:57:51;10.55;;;4.07;;
21254;SDS011;10785;50.674;17.954;2023-06-24T02:00:22;7.15;;;4.68;;
21254;SDS011;10785;50.674;17.954;2023-06-24T02:02:53;5.28;;;2.78;;
21254;SDS011;10785;50.674;17.954;2023-06-24T02:05:23;3.75;;;2.95;;
21254;SDS011;10785;50.674;17.954;2023-06-24T02:07:53;7.68;;;4.47;;
21254;SDS011;10785;50.674;17.954;2023-06-24T02:10:23;6.90;;;3.72;;
21254;SDS011;10785;50.674;17.954;2023-06-24T02:12:54;3.58;;;2.88;;
21254;SDS011;10785;50.674;17.954;2023-06-24T02:15:24;3.88;;;3.45;;
21254;SDS011;10785;50.674;17.954;2023-06-24T03:31:10;6.95;;;2.95;;
21254;SDS011;10785;50.674;17.954;2023-06-24T03:33:39;2.33;;;1.95;;
21254;SDS011;10785;50.674;17.954;2023-06-24T03:36:13;18.42;;;3.17;;
21254;SDS011;10785;50.674;17.954;2023-06-24T03:38:41;3.25;;;2.15;;
21254;SDS011;10785;50.674;17.954;2023-06-24T03:41:10;3.17;;;2.30;;
21254;SDS011;10785;50.674;17.954;2023-06-24T03:43:39;3.17;;;2.30;;
21254;SDS011;10785;50.674;17.954;2023-06-24T03:46:10;9.63;;;3.13;;
21254;SDS011;10785;50.674;17.954;2023-06-24T03:48:39;5.57;;;2.85;;
21254;SDS011;10785;50.674;17.954;2023-06-24T03:51:08;2.45;;;2.30;;
21254;SDS011;10785;50.674;17.954;2023-06-24T03:53:37;2.92;;;2.60;;
21254;SDS011;10785;50.674;17.954;2023-06-24T03:56:06;5.30;;;2.53;;
21254;SDS011;10785;50.674;17.954;2023-06-24T03:58:35;3.83;;;2.72;;
21254;SDS011;10785;50.674;17.954;2023-06-24T04:01:03;3.10;;;2.10;;
21254;SDS011;10785;50.674;17.954;2023-06-24T04:03:33;6.47;;;3.30;;
21254;SDS011;10785;50.674;17.954;2023-06-24T04:06:02;6.88;;;3.42;;
21254;SDS011;10785;50.674;17.954;2023-06-24T04:08:31;4.00;;;2.42;;
21254;SDS011;10785;50.674;17.954;2023-06-24T04:11:00;2.38;;;1.88;;
21254;SDS011;10785;50.674;17.954;2023-06-24T04:13:30;3.47;;;3.05;;
21254;SDS011;10785;50.674;17.954;2023-06-24T04:16:01;3.70;;;1.98;;
21254;SDS011;10785;50.674;17.954;2023-06-24T04:18:30;4.70;;;2.45;;
21254;SDS011;10785;50.674;17.954;2023-06-24T04:21:00;5.68;;;3.03;;
21254;SDS011;10785;50.674;17.954;2023-06-24T04:23:29;25.52;;;3.47;;
21254;SDS011;10785;50.674;17.954;2023-06-24T04:25:57;2.65;;;2.45;;
21254;SDS011;10785;50.674;17.954;2023-06-24T04:28:26;2.72;;;1.92;;
21254;SDS011;10785;50.674;17.954;2023-06-24T04:30:55;10.63;;;3.05;;
21254;SDS011;10785;50.674;17.954;2023-06-24T04:33:25;2.60;;;2.35;;
21254;SDS011;10785;50.674;17.954;2023-06-24T04:35:54;3.90;;;3.08;;
21254;SDS011;10785;50.674;17.954;2023-06-24T04:38:25;2.55;;;1.30;;
21254;SDS011;10785;50.674;17.954;2023-06-24T04:40:54;5.88;;;2.33;;
21254;SDS011;10785;50.674;17.954;2023-06-24T04:43:26;2.97;;;1.83;;
21254;SDS011;10785;50.674;17.954;2023-06-24T04:45:55;2.92;;;2.53;;
21254;SDS011;10785;50.674;17.954;2023-06-24T04:48:24;2.72;;;2.38;;
21254;SDS011;10785;50.674;17.954;2023-06-24T05:56:29;1.20;;;1.10;;
21254;SDS011;10785;50.674;17.954;2023-06-24T05:58:58;0.98;;;0.98;;
21254;SDS011;10785;50.674;17.954;2023-06-24T06:01:27;0.85;;;0.55;;
21254;SDS011;10785;50.674;17.954;2023-06-24T06:03:56;1.15;;;1.05;;
21254;SDS011;10785;50.674;17.954;2023-06-24T06:06:24;1.35;;;1.25;;
21254;SDS011;10785;50.674;17.954;2023-06-24T06:08:53;2.33;;;1.45;;
21254;SDS011;10785;50.674;17.954;2023-06-24T06:11:22;7.10;;;1.40;;
21254;SDS011;10785;50.674;17.954;2023-06-24T06:13:52;1.95;;;0.95;;
21254;SDS011;10785;50.674;17.954;2023-06-24T06:16:21;2.38;;;1.38;;
21254;SDS011;10785;50.674;17.954;2023-06-24T06:18:50;1.48;;;1.38;;
21254;SDS011;10785;50.674;17.954;2023-06-24T06:21:19;1.52;;;1.42;;
21254;SDS011;10785;50.674;17.954;2023-06-24T06:23:47;2.05;;;1.63;;
21254;SDS011;10785;50.674;17.954;2023-06-24T06:26:16;0.98;;;0.98;;
21254;SDS011;10785;50.674;17.954;2023-06-24T06:28:45;1.70;;;0.90;;
21254;SDS011;10785;50.674;17.954;2023-06-24T06:31:33;8.93;;;2.55;;
21254;SDS011;10785;50.674;17.954;2023-06-24T06:34:07;0.60;;;0.60;;
21254;SDS011;10785;50.674;17.954;2023-06-24T06:36:36;2.22;;;2.03;;
21254;SDS011;10785;50.674;17.954;2023-06-24T06:39:05;1.15;;;0.60;;
21254;SDS011;10785;50.674;17.954;2023-06-24T06:41:33;1.98;;;1.45;;
21254;SDS011;10785;50.674;17.954;2023-06-24T06:44:02;1.67;;;1.52;;
21254;SDS011;10785;50.674;17.954;2023-06-24T06:46:32;2.08;;;1.35;;
21254;SDS011;10785;50.674;17.954;2023-06-24T06:49:01;2.25;;;1.38;;
21254;SDS011;10785;50.674;17.954;2023-06-24T06:51:29;0.90;;;0.90;;
21254;SDS011;10785;50.674;17.954;2023-06-24T06:53:58;1.98;;;1.38;;
21254;SDS011;10785;50.674;17.954;2023-06-24T06:56:28;0.60;;;0.47;;
21254;SDS011;10785;50.674;17.954;2023-06-24T06:58:57;1.90;;;1.38;;
21254;SDS011;10785;50.674;17.954;2023-06-24T07:01:25;1.30;;;1.20;;
21254;SDS011;10785;50.674;17.954;2023-06-24T07:03:55;1.25;;;1.15;;
21254;SDS011;10785;50.674;17.954;2023-06-24T07:06:24;1.67;;;1.58;;
21254;SDS011;10785;50.674;17.954;2023-06-24T07:08:53;3.17;;;1.33;;
21254;SDS011;10785;50.674;17.954;2023-06-24T07:11:22;1.38;;;1.27;;
21254;SDS011;10785;50.674;17.954;2023-06-24T07:13:51;1.95;;;1.52;;
21254;SDS011;10785;50.674;17.954;2023-06-24T07:16:19;1.70;;;0.85;;
21254;SDS011;10785;50.674;17.954;2023-06-24T07:18:48;1.77;;;0.93;;
21254;SDS011;10785;50.674;17.954;2023-06-24T07:21:18;0.52;;;0.52;;
21254;SDS011;10785;50.674;17.954;2023-06-24T07:23:48;1.48;;;1.10;;
21254;SDS011;10785;50.674;17.954;2023-06-24T07:26:16;1.30;;;1.20;;
21254;SDS011;10785;50.674;17.954;2023-06-24T07:28:45;0.80;;;0.77;;
21254;SDS011;10785;50.674;17.954;2023-06-24T07:31:33;1.15;;;1.15;;
21254;SDS011;10785;50.674;17.954;2023-06-24T07:34:02;2.10;;;1.42;;
21254;SDS011;10785;50.674;17.954;2023-06-24T07:36:32;1.17;;;1.10;;
21254;SDS011;10785;50.674;17.954;2023-06-24T07:39:00;1.88;;;1.45;;
21254;SDS011;10785;50.674;17.954;2023-06-24T07:41:29;1.00;;;0.80;;
21254;SDS011;10785;50.674;17.954;2023-06-24T07:43:58;1.15;;;1.13;;
21254;SDS011;10785;50.674;17.954;2023-06-24T07:46:26;2.78;;;1.75;;
21254;SDS011;10785;50.674;17.954;2023-06-24T07:48:56;0.90;;;0.90;;
21254;SDS011;10785;50.674;17.954;2023-06-24T07:51:25;1.15;;;1.13;;
21254;SDS011;10785;50.674;17.954;2023-06-24T07:53:56;0.45;;;0.45;;
21254;SDS011;10785;50.674;17.954;2023-06-24T07:56:24;1.20;;;1.08;;
21254;SDS011;10785;50.674;17.954;2023-06-24T07:58:53;1.70;;;1.58;;
21254;SDS011;10785;50.674;17.954;2023-06-24T08:01:22;0.80;;;0.80;;
21254;SDS011;10785;50.674;17.954;2023-06-24T08:03:50;1.80;;;1.55;;
21254;SDS011;10785;50.674;17.954;2023-06-24T08:06:20;1.92;;;1.08;;
21254;SDS011;10785;50.674;17.954;2023-06-24T08:08:49;1.98;;;0.43;;
21254;SDS011;10785;50.674;17.954;2023-06-24T08:11:19;2.05;;;1.42;;
21254;SDS011;10785;50.674;17.954;2023-06-24T08:13:48;2.53;;;1.23;;
21254;SDS011;10785;50.674;17.954;2023-06-24T08:16:17;0.95;;;0.80;;
21254;SDS011;10785;50.674;17.954;2023-06-24T08:18:47;1.15;;;1.05;;
21254;SDS011;10785;50.674;17.954;2023-06-24T08:21:15;1.08;;;0.90;;
21254;SDS011;10785;50.674;17.954;2023-06-24T08:23:44;2.95;;;1.08;;
21254;SDS011;10785;50.674;17.954;2023-06-24T08:26:13;1.20;;;1.02;;
21254;SDS011;10785;50.674;17.954;2023-06-24T08:28:45;0.95;;;0.95;;
21254;SDS011;10785;50.674;17.954;2023-06-24T08:31:14;1.70;;;1.60;;
21254;SDS011;10785;50.674;17.954;2023-06-24T08:33:43;0.50;;;0.50;;
21254;SDS011;10785;50.674;17.954;2023-06-24T08:36:13;0.98;;;0.98;;
21254;SDS011;10785;50.674;17.954;2023-06-24T08:38:41;1.63;;;1.52;;
21254;SDS011;10785;50.674;17.954;2023-06-24T08:41:10;1.70;;;1.60;;
21254;SDS011;10785;50.674;17.954;2023-06-24T08:43:39;0.40;;;0.40;;
21254;SDS011;10785;50.674;17.954;2023-06-24T08:46:08;2.25;;;1.27;;
21254;SDS011;10785;50.674;17.954;2023-06-24T08:48:37;1.27;;;1.10;;
21254;SDS011;10785;50.674;17.954;2023-06-24T08:51:08;10.05;;;3.28;;
21254;SDS011;10785;50.674;17.954;2023-06-24T08:53:42;1.15;;;1.15;;
21254;SDS011;10785;50.674;17.954;2023-06-24T08:56:12;4.38;;;1.23;;
21254;SDS011;10785;50.674;17.954;2023-06-24T08:58:42;1.67;;;0.82;;
21254;SDS011;10785;50.674;17.954;2023-06-24T09:01:12;1.48;;;1.38;;
21254;SDS011;10785;50.674;17.954;2023-06-24T09:03:41;0.98;;;0.98;;
21254;SDS011;10785;50.674;17.954;2023-06-24T09:06:10;1.98;;;1.13;;
21254;SDS011;10785;50.674;17.954;2023-06-24T09:08:39;1.10;;;0.80;;
21254;SDS011;10785;50.674;17.954;2023-06-24T09:11:08;0.77;;;0.57;;
21254;SDS011;10785;50.674;17.954;2023-06-24T09:13:37;2.75;;;1.60;;
21254;SDS011;10785;50.674;17.954;2023-06-24T09:16:13;1.45;;;1.30;;
21254;SDS011;10785;50.674;17.954;2023-06-24T09:18:47;2.13;;;1.05;;
21254;SDS011;10785;50.674;17.954;2023-06-24T09:21:23;2.00;;;1.65;;
21254;SDS011;10785;50.674;17.954;2023-06-24T09:23:53;1.85;;;1.42;;
21254;SDS011;10785;50.674;17.954;2023-06-24T09:26:22;1.90;;;1.70;;
21254;SDS011;10785;50.674;17.954;2023-06-24T09:28:52;2.92;;;1.60;;
21254;SDS011;10785;50.674;17.954;2023-06-24T09:31:22;0.93;;;0.82;;
21254;SDS011;10785;50.674;17.954;2023-06-24T09:33:52;0.82;;;0.82;;
21254;SDS011;10785;50.674;17.954;2023-06-24T09:36:25;2.13;;;1.63;;
21254;SDS011;10785;50.674;17.954;2023-06-24T09:38:55;1.77;;;1.52;;
21254;SDS011;10785;50.674;17.954;2023-06-24T09:41:48;1.45;;;1.15;;
21254;SDS011;10785;50.674;17.954;2023-06-24T09:44:17;2.33;;;1.92;;
21254;SDS011;10785;50.674;17.954;2023-06-24T09:46:48;2.03;;;1.70;;
21254;SDS011;10785;50.674;17.954;2023-06-24T09:49:17;2.45;;;1.90;;
21254;SDS011;10785;50.674;17.954;2023-06-24T09:51:46;1.52;;;1.42;;
21254;SDS011;10785;50.674;17.954;2023-06-24T09:54:15;2.60;;;1.05;;
21254;SDS011;10785;50.674;17.954;2023-06-24T09:56:45;1.27;;;1.10;;
21254;SDS011;10785;50.674;17.954;2023-06-24T09:59:17;1.10;;;0.88;;
21254;SDS011;10785;50.674;17.954;2023-06-24T10:01:48;1.55;;;0.95;;
21254;SDS011;10785;50.674;17.954;2023-06-24T10:04:20;6.07;;;1.60;;
21254;SDS011;10785;50.674;17.954;2023-06-24T10:06:50;1.52;;;0.88;;
21254;SDS011;10785;50.674;17.954;2023-06-24T10:09:19;12.82;;;2.05;;
21254;SDS011;10785;50.674;17.954;2023-06-24T10:11:48;2.30;;;2.10;;
21254;SDS011;10785;50.674;17.954;2023-06-24T10:14:16;2.47;;;0.88;;
21254;SDS011;10785;50.674;17.954;2023-06-24T10:16:45;1.38;;;1.30;;
21254;SDS011;10785;50.674;17.954;2023-06-24T10:19:18;1.42;;;1.30;;
21254;SDS011;10785;50.674;17.954;2023-06-24T10:21:50;2.85;;;1.67;;
21254;SDS011;10785;50.674;17.954;2023-06-24T10:24:29;2.00;;;1.55;;
21254;SDS011;10785;50.674;17.954;2023-06-24T10:27:00;2.42;;;2.22;;
21254;SDS011;10785;50.674;17.954;2023-06-24T10:29:35;3.42;;;1.85;;
21254;SDS011;10785;50.674;17.954;2023-06-24T10:32:05;1.88;;;1.33;;
21254;SDS011;10785;50.674;17.954;2023-06-24T10:34:40;0.73;;;0.73;;
21254;SDS011;10785;50.674;17.954;2023-06-24T10:37:10;2.08;;;1.88;;
21254;SDS011;10785;50.674;17.954;2023-06-24T10:39:47;0.98;;;0.70;;
21254;SDS011;10785;50.674;17.954;2023-06-24T10:42:29;0.98;;;0.98;;
21254;SDS011;10785;50.674;17.954;2023-06-24T10:45:13;3.83;;;1.65;;
21254;SDS011;10785;50.674;17.954;2023-06-24T10:47:43;2.05;;;1.42;;
21254;SDS011;10785;50.674;17.954;2023-06-24T10:50:15;1.40;;;1.23;;
21254;SDS011;10785;50.674;17.954;2023-06-24T10:52:46;1.90;;;1.05;;
21254;SDS011;10785;50.674;17.954;2023-06-24T10:55:16;1.67;;;1.52;;
21254;SDS011;10785;50.674;17.954;2023-06-24T10:57:45;0.70;;;0.70;;
21254;SDS011;10785;50.674;17.954;2023-06-24T11:00:15;5.78;;;1.30;;
21254;SDS011;10785;50.674;17.954;2023-06-24T11:02:44;1.77;;;1.23;;
21254;SDS011;10785;50.674;17.954;2023-06-24T11:05:14;1.58;;;1.15;;
21254;SDS011;10785;50.674;17.954;2023-06-24T11:07:43;0.80;;;0.80;;
21254;SDS011;10785;50.674;17.954;2023-06-24T11:10:12;8.32;;;1.25;;
21254;SDS011;10785;50.674;17.954;2023-06-24T11:12:42;1.83;;;1.08;;
21254;SDS011;10785;50.674;17.954;2023-06-24T11:15:13;1.30;;;1.20;;
21254;SDS011;10785;50.674;17.954;2023-06-24T11:17:42;0.95;;;0.88;;
21254;SDS011;10785;50.674;17.954;2023-06-24T11:20:11;1.08;;;1.05;;
21254;SDS011;10785;50.674;17.954;2023-06-24T11:22:43;0.80;;;0.80;;
21254;SDS011;10785;50.674;17.954;2023-06-24T12:10:44;0.75;;;0.60;;
21254;SDS011;10785;50.674;17.954;2023-06-24T12:13:13;1.25;;;0.93;;
21254;SDS011;10785;50.674;17.954;2023-06-24T12:15:42;2.05;;;1.05;;
21254;SDS011;10785;50.674;17.954;2023-06-24T12:18:11;1.30;;;1.05;;
21254;SDS011;10785;50.674;17.954;2023-06-24T12:20:40;4.00;;;2.03;;
21254;SDS011;10785;50.674;17.954;2023-06-24T12:25:51;3.58;;;2.03;;
21254;SDS011;10785;50.674;17.954;2023-06-24T12:28:20;1.50;;;1.40;;
21254;SDS011;10785;50.674;17.954;2023-06-24T12:30:48;0.77;;;0.77;;
21254;SDS011;10785;50.674;17.954;2023-06-24T12:33:18;1.20;;;1.00;;
21254;SDS011;10785;50.674;17.954;2023-06-24T12:35:47;1.65;;;1.13;;
21254;SDS011;10785;50.674;17.954;2023-06-24T12:38:16;3.72;;;1.88;;
21254;SDS011;10785;50.674;17.954;2023-06-24T12:40:45;1.00;;;0.90;;
21254;SDS011;10785;50.674;17.954;2023-06-24T12:43:16;1.77;;;1.17;;
21254;SDS011;10785;50.674;17.954;2023-06-24T12:45:45;1.67;;;0.80;;
21254;SDS011;10785;50.674;17.954;2023-06-24T12:48:13;0.82;;;0.82;;
21254;SDS011;10785;50.674;17.954;2023-06-24T12:50:42;0.82;;;0.82;;
21254;SDS011;10785;50.674;17.954;2023-06-24T12:53:11;2.40;;;1.67;;
21254;SDS011;10785;50.674;17.954;2023-06-24T12:55:41;0.60;;;0.52;;
21254;SDS011;10785;50.674;17.954;2023-06-24T12:58:09;1.27;;;0.82;;
21254;SDS011;10785;50.674;17.954;2023-06-24T13:00:39;1.70;;;0.70;;
21254;SDS011;10785;50.674;17.954;2023-06-24T13:03:08;1.88;;;0.75;;
21254;SDS011;10785;50.674;17.954;2023-06-24T13:05:37;3.50;;;1.00;;
21254;SDS011;10785;50.674;17.954;2023-06-24T13:08:05;1.63;;;1.10;;
21254;SDS011;10785;50.674;17.954;2023-06-24T13:10:34;1.45;;;1.35;;
21254;SDS011;10785;50.674;17.954;2023-06-24T13:13:03;1.33;;;0.85;;
21254;SDS011;10785;50.674;17.954;2023-06-24T13:15:32;1.63;;;0.93;;
21254;SDS011;10785;50.674;17.954;2023-06-24T13:18:02;1.05;;;0.77;;
21254;SDS011;10785;50.674;17.954;2023-06-24T13:20:31;2.78;;;1.17;;
21254;SDS011;10785;50.674;17.954;2023-06-24T13:23:00;1.23;;;1.02;;
21254;SDS011;10785;50.674;17.954;2023-06-24T13:25:29;4.03;;;1.48;;
21254;SDS011;10785;50.674;17.954;2023-06-24T13:27:58;1.45;;;0.98;;
21254;SDS011;10785;50.674;17.954;2023-06-24T13:30:27;1.50;;;1.40;;
21254;SDS011;10785;50.674;17.954;2023-06-24T13:32:55;1.25;;;0.93;;
21254;SDS011;10785;50.674;17.954;2023-06-24T13:35:25;0.80;;;0.80;;
21254;SDS011;10785;50.674;17.954;2023-06-24T13:37:54;0.82;;;0.57;;
21254;SDS011;10785;50.674;17.954;2023-06-24T13:40:25;12.73;;;2.17;;
21254;SDS011;10785;50.674;17.954;2023-06-24T13:42:53;1.17;;;1.08;;
21254;SDS011;10785;50.674;17.954;2023-06-24T13:45:22;1.00;;;0.70;;
21254;SDS011;10785;50.674;17.954;2023-06-24T13:47:50;2.33;;;0.70;;
21254;SDS011;10785;50.674;17.954;2023-06-24T13:50:19;2.92;;;1.23;;
21254;SDS011;10785;50.674;17.954;2023-06-24T13:52:49;0.95;;;0.60;;
21254;SDS011;10785;50.674;17.954;2023-06-24T13:55:18;1.60;;;0.90;;
21254;SDS011;10785;50.674;17.954;2023-06-24T13:57:47;4.90;;;0.93;;
21254;SDS011;10785;50.674;17.954;2023-06-24T14:00:16;1.02;;;0.60;;
21254;SDS011;10785;50.674;17.954;2023-06-24T14:02:47;1.65;;;1.08;;
21254;SDS011;10785;50.674;17.954;2023-06-24T14:05:16;1.30;;;0.60;;
21254;SDS011;10785;50.674;17.954;2023-06-24T14:07:45;2.05;;;1.00;;
21254;SDS011;10785;50.674;17.954;2023-06-24T14:10:15;2.17;;;1.45;;
21254;SDS011;10785;50.674;17.954;2023-06-24T14:12:44;3.20;;;1.25;;
21254;SDS011;10785;50.674;17.954;2023-06-24T14:15:13;0.70;;;0.68;;
21254;SDS011;10785;50.674;17.954;2023-06-24T14:17:41;2.83;;;1.35;;
21254;SDS011;10785;50.674;17.954;2023-06-24T14:20:11;1.65;;;1.35;;
21254;SDS011;10785;50.674;17.954;2023-06-24T14:22:40;2.05;;;0.95;;
21254;SDS011;10785;50.674;17.954;2023-06-24T14:25:08;0.40;;;0.40;;
21254;SDS011;10785;50.674;17.954;2023-06-24T14:27:39;2.45;;;0.70;;
21254;SDS011;10785;50.674;17.954;2023-06-24T14:30:08;6.65;;;0.73;;
21254;SDS011;10785;50.674;17.954;2023-06-24T14:32:37;1.45;;;1.35;;
21254;SDS011;10785;50.674;17.954;2023-06-24T14:35:06;0.70;;;0.35;;
21254;SDS011;10785;50.674;17.954;2023-06-24T14:37:36;5.20;;;1.05;;
21254;SDS011;10785;50.674;17.954;2023-06-24T14:40:05;2.33;;;0.85;;
21254;SDS011;10785;50.674;17.954;2023-06-24T14:42:35;2.95;;;2.58;;
21254;SDS011;10785;50.674;17.954;2023-06-24T14:45:05;1.65;;;1.55;;
21254;SDS011;10785;50.674;17.954;2023-06-24T14:47:34;11.20;;;1.48;;
21254;SDS011;10785;50.674;17.954;2023-06-24T14:50:03;1.45;;;1.38;;
21254;SDS011;10785;50.674;17.954;2023-06-24T14:52:32;11.73;;;2.03;;
21254;SDS011;10785;50.674;17.954;2023-06-24T14:55:01;1.95;;;1.38;;
21254;SDS011;10785;50.674;17.954;2023-06-24T14:57:30;1.67;;;1.55;;
21254;SDS011;10785;50.674;17.954;2023-06-24T14:59:58;3.78;;;1.73;;
21254;SDS011;10785;50.674;17.954;2023-06-24T15:02:33;1.95;;;1.25;;
21254;SDS011;10785;50.674;17.954;2023-06-24T15:05:02;1.45;;;1.35;;
21254;SDS011;10785;50.674;17.954;2023-06-24T15:07:32;1.23;;;1.10;;
21254;SDS011;10785;50.674;17.954;2023-06-24T15:10:02;2.88;;;1.67;;
21254;SDS011;10785;50.674;17.954;2023-06-24T15:12:32;1.55;;;1.30;;
21254;SDS011;10785;50.674;17.954;2023-06-24T15:15:01;1.80;;;1.35;;
21254;SDS011;10785;50.674;17.954;2023-06-24T15:17:32;4.13;;;2.30;;
21254;SDS011;10785;50.674;17.954;2023-06-24T15:20:02;2.42;;;1.90;;
21254;SDS011;10785;50.674;17.954;2023-06-24T15:22:31;2.10;;;1.73;;
21254;SDS011;10785;50.674;17.954;2023-06-24T15:25:00;1.67;;;0.98;;
21254;SDS011;10785;50.674;17.954;2023-06-24T15:27:29;1.70;;;1.05;;
21254;SDS011;10785;50.674;17.954;2023-06-24T15:29:59;2.05;;;1.25;;
21254;SDS011;10785;50.674;17.954;2023-06-24T15:32:33;2.22;;;1.48;;
21254;SDS011;10785;50.674;17.954;2023-06-24T15:35:02;3.55;;;1.45;;
21254;SDS011;10785;50.674;17.954;2023-06-24T15:37:31;3.95;;;2.90;;
21254;SDS011;10785;50.674;17.954;2023-06-24T15:40:00;4.65;;;2.35;;
21254;SDS011;10785;50.674;17.954;2023-06-24T15:42:30;3.03;;;1.83;;
21254;SDS011;10785;50.674;17.954;2023-06-24T15:44:59;4.53;;;2.17;;
21254;SDS011;10785;50.674;17.954;2023-06-24T15:47:31;1.92;;;1.63;;
21254;SDS011;10785;50.674;17.954;2023-06-24T15:50:05;5.68;;;1.88;;
21254;SDS011;10785;50.674;17.954;2023-06-24T15:52:34;2.03;;;1.65;;
21254;SDS011;10785;50.674;17.954;2023-06-24T15:55:03;3.65;;;1.73;;
21254;SDS011;10785;50.674;17.954;2023-06-24T15:57:32;2.00;;;1.42;;
21254;SDS011;10785;50.674;17.954;2023-06-24T16:00:00;4.43;;;1.35;;
21254;SDS011;10785;50.674;17.954;2023-06-24T16:02:31;4.50;;;2.22;;
21254;SDS011;10785;50.674;17.954;2023-06-24T16:05:01;2.80;;;1.88;;
21254;SDS011;10785;50.674;17.954;2023-06-24T16:07:32;3.85;;;1.77;;
21254;SDS011;10785;50.674;17.954;2023-06-24T16:10:01;2.60;;;1.52;;
21254;SDS011;10785;50.674;17.954;2023-06-24T16:12:31;3.47;;;1.30;;
21254;SDS011;10785;50.674;17.954;2023-06-24T16:15:00;3.85;;;2.00;;
21254;SDS011;10785;50.674;17.954;2023-06-24T16:17:30;1.60;;;1.10;;
21254;SDS011;10785;50.674;17.954;2023-06-24T16:20:00;4.68;;;1.90;;
21254;SDS011;10785;50.674;17.954;2023-06-24T16:22:31;10.68;;;1.98;;
21254;SDS011;10785;50.674;17.954;2023-06-24T16:24:59;1.17;;;1.08;;
21254;SDS011;10785;50.674;17.954;2023-06-24T16:27:30;1.92;;;1.48;;
21254;SDS011;10785;50.674;17.954;2023-06-24T16:29:58;6.43;;;2.15;;
21254;SDS011;10785;50.674;17.954;2023-06-24T16:32:31;0.75;;;0.70;;
21254;SDS011;10785;50.674;17.954;2023-06-24T16:35:02;3.33;;;1.92;;
21254;SDS011;10785;50.674;17.954;2023-06-24T16:37:34;1.48;;;0.77;;
21254;SDS011;10785;50.674;17.954;2023-06-24T16:40:03;1.25;;;1.20;;
21254;SDS011;10785;50.674;17.954;2023-06-24T16:42:32;1.60;;;1.20;;
21254;SDS011;10785;50.674;17.954;2023-06-24T16:45:00;2.30;;;1.15;;
21254;SDS011;10785;50.674;17.954;2023-06-24T16:47:32;2.05;;;1.33;;
21254;SDS011;10785;50.674;17.954;2023-06-24T16:50:03;1.90;;;1.58;;
21254;SDS011;10785;50.674;17.954;2023-06-24T16:52:32;1.08;;;0.95;;
21254;SDS011;10785;50.674;17.954;2023-06-24T16:55:01;0.75;;;0.75;;
21254;SDS011;10785;50.674;17.954;2023-06-24T16:57:32;2.25;;;1.60;;
21254;SDS011;10785;50.674;17.954;2023-06-24T17:00:01;1.35;;;0.98;;
21254;SDS011;10785;50.674;17.954;2023-06-24T17:02:33;2.88;;;1.30;;
21254;SDS011;10785;50.674;17.954;2023-06-24T17:05:04;2.63;;;1.35;;
21254;SDS011;10785;50.674;17.954;2023-06-24T17:07:33;3.38;;;1.90;;
21254;SDS011;10785;50.674;17.954;2023-06-24T17:10:02;1.35;;;1.02;;
21254;SDS011;10785;50.674;17.954;2023-06-24T17:12:31;5.35;;;0.90;;
21254;SDS011;10785;50.674;17.954;2023-06-24T17:15:00;1.85;;;1.13;;
21254;SDS011;10785;50.674;17.954;2023-06-24T17:17:30;2.60;;;1.77;;
21254;SDS011;10785;50.674;17.954;2023-06-24T17:20:00;4.03;;;2.15;;
21254;SDS011;10785;50.674;17.954;2023-06-24T17:22:33;2.47;;;1.48;;
21254;SDS011;10785;50.674;17.954;2023-06-24T17:25:02;3.88;;;1.23;;
21254;SDS011;10785;50.674;17.954;2023-06-24T17:27:31;1.83;;;1.30;;
21254;SDS011;10785;50.674;17.954;2023-06-24T17:30:00;3.00;;;1.45;;
21254;SDS011;10785;50.674;17.954;2023-06-24T17:32:31;12.15;;;2.40;;
21254;SDS011;10785;50.674;17.954;2023-06-24T17:35:01;2.75;;;1.77;;
21254;SDS011;10785;50.674;17.954;2023-06-24T17:37:30;3.30;;;1.52;;
21254;SDS011;10785;50.674;17.954;2023-06-24T17:40:00;20.05;;;1.52;;
21254;SDS011;10785;50.674;17.954;2023-06-24T17:42:31;2.25;;;1.45;;
21254;SDS011;10785;50.674;17.954;2023-06-24T17:44:59;0.68;;;0.68;;
21254;SDS011;10785;50.674;17.954;2023-06-24T17:47:30;1.20;;;1.05;;
21254;SDS011;10785;50.674;17.954;2023-06-24T17:49:59;1.20;;;1.08;;
21254;SDS011;10785;50.674;17.954;2023-06-24T17:52:30;4.70;;;1.95;;
21254;SDS011;10785;50.674;17.954;2023-06-24T17:55:00;4.70;;;2.22;;
21254;SDS011;10785;50.674;17.954;2023-06-24T17:57:30;3.38;;;2.15;;
21254;SDS011;10785;50.674;17.954;2023-06-24T17:59:59;0.88;;;0.85;;
21254;SDS011;10785;50.674;17.954;2023-06-24T18:02:31;2.70;;;1.75;;